Time;durP1;ratioP1;P1;durP2;ratioP2;P2;SDS_P1;SDS_P2;PMS_P1;PMS_P2;Temp;Humidity;BMP_temperature;BMP_pressure;BME280_temperature;BME280_humidity;BME280_pressure;Samples;Min_cycle;Max_cycle;Signal;HPM_P1;HPM_P2
2022/12/06 01:00:10;;;;;;;5.30;4.20;;;;;;;10.24;56.46;95052.34;2399772;54;52189;-76
2022/12/06 01:02:39;;;;;;;3.17;2.97;;;;;;;9.11;61.50;95051.13;2621189;46;20157;-78
2022/12/06 01:06:02;;;;;;;;;;;;;;;;;;;;;
2022/12/06 01:09:00;;;;;;;;;;;;;;;;;;;;;
2022/12/06 01:16:01;;;;;;;2.13;1.77;;;;;;;8.42;69.55;94890.66;2618359;54;20189;-77
2022/12/06 01:18:33;;;;;;;3.87;3.47;;;;;;;10.44;61.79;95070.13;2619560;39;20562;-77
2022/12/06 01:21:05;;;;;;;1.57;1.57;;;;;;;9.48;61.33;95037.19;2618252;47;20683;-78
2022/12/06 01:23:47;;;;;;;3.30;1.97;;;;;;;8.59;63.30;94988.09;2619267;39;20275;-78
2022/12/06 01:26:18;;;;;;;3.20;2.30;;;;;;;8.08;64.96;94979.34;2619031;47;20164;-79
2022/12/06 01:44:56;;;;;;;3.33;3.00;;;;;;;8.59;64.36;95024.06;2616758;47;20321;-77
2022/12/06 01:47:28;;;;;;;2.30;2.03;;;;;;;8.18;66.19;95036.28;2616857;47;20192;-76
2022/12/06 01:50:44;;;;;;;;;;;;;;;;;;;;;
2022/12/06 01:53:44;;;;;;;2.70;2.50;;;;;;;10.45;66.94;95046.09;2617929;54;20153;-78
2022/12/06 01:57:04;;;;;;;3.83;2.93;;;;;;;11.30;63.52;95049.28;2618746;54;20173;-78
2022/12/06 02:17:24;;;;;;;6.20;3.63;;;;;;;7.77;64.53;94875.72;2618695;47;20161;-78
2022/12/06 02:20:44;;;;;;;3.57;2.63;;;;;;;7.49;67.11;94943.47;2617661;46;20156;-77
2022/12/06 02:24:04;;;;;;;4.83;3.10;;;;;;;5.94;70.00;94820.97;2616970;47;20165;-77
2022/12/06 02:26:41;;;;;;;2.40;2.23;;;;;;;6.83;68.39;94881.78;2617285;47;20161;-77
2022/12/06 02:29:41;;;;;;;2.53;2.40;;;;;;;7.16;69.40;94950.97;2617724;54;20164;-78
2022/12/06 02:32:16;;;;;;;4.03;2.90;;;;;;;8.93;70.81;95019.94;2618457;47;20184;-78
2022/12/06 02:34:51;;;;;;;1.60;1.37;;;;;;;9.91;66.12;94993.69;2618739;47;20160;-78
2022/12/06 02:37:24;;;;;;;1.90;1.80;;;;;;;10.03;62.51;94908.53;2619789;47;20153;-78
2022/12/06 02:47:03;;;;;;;4.50;2.80;;;;;;;9.33;61.50;94922.06;2618293;46;20161;-77
2022/12/06 02:50:22;;;;;;;3.83;2.77;;;;;;;10.17;60.96;94938.13;2618624;54;20212;-77
2022/12/06 02:53:40;;;;;;;2.87;2.67;;;;;;;11.59;59.76;95004.88;2618889;47;20168;-78
2022/12/06 02:56:14;;;;;;;3.80;3.17;;;;;;;10.16;57.52;94913.28;2618440;47;20168;-78
2022/12/06 03:02:06;;;;;;;3.57;3.37;;;;;;;8.66;63.64;94977.78;2618025;54;20183;-77
2022/12/06 03:04:48;;;;;;;4.10;2.17;;;;;;;7.73;65.53;94915.72;2618250;54;20208;-79
2022/12/06 03:07:41;;;;;;;3.33;3.07;;;;;;;8.23;65.96;95009.69;2619590;47;20313;-78
2022/12/06 03:10:42;;;;;;;4.70;3.70;;;;;;;7.70;67.12;94919.06;2618642;47;20161;-78
2022/12/06 03:14:02;;;;;;;;;;;;;;;;;;;;;
2022/12/06 03:17:34;;;;;;;;;;;;;;;;;;;;;
2022/12/06 03:23:40;;;;;;;4.07;3.60;;;;;;;11.55;60.28;95002.63;2617241;47;20224;-78
2022/12/06 03:26:15;;;;;;;5.03;3.43;;;;;;;11.59;58.29;94971.56;2618443;47;20152;-78
2022/12/06 03:28:46;;;;;;;2.37;2.27;;;;;;;11.68;59.53;94944.19;2619021;39;20614;-77
2022/12/06 03:31:21;;;;;;;3.67;2.37;;;;;;;12.27;57.72;94994.34;2618604;47;20164;-79
2022/12/06 03:37:13;;;;;;;4.03;2.07;;;;;;;12.23;53.73;94957.31;2618375;46;20165;-77
2022/12/06 03:40:25;;;;;;;6.37;3.40;;;;;;;11.48;55.81;94978.25;2618325;47;20764;-77
2022/12/06 03:43:35;;;;;;;2.73;2.63;;;;;;;11.80;55.80;94960.91;2617479;47;20272;-77
2022/12/06 03:46:10;;;;;;;5.47;4.40;;;;;;;10.38;57.32;94965.13;2618186;47;20176;-77
2022/12/06 03:49:32;;;;;;;3.87;3.57;;;;;;;9.61;61.06;94981.84;2618303;47;20164;-77
2022/12/06 03:52:06;;;;;;;2.80;2.67;;;;;;;8.50;63.88;94955.22;2618150;54;20165;-77
2022/12/06 03:54:34;;;;;;;3.07;2.50;;;;;;;8.69;64.27;94903.84;2618074;47;20156;-77
2022/12/06 03:57:03;;;;;;;2.97;2.77;;;;;;;9.48;65.82;94827.97;2619503;47;20160;-78
2022/12/06 03:59:32;;;;;;;5.73;2.47;;;;;;;10.77;62.70;94890.78;2618425;47;20149;-77
2022/12/06 04:02:00;;;;;;;3.20;2.77;;;;;;;11.45;57.68;94979.59;2618210;47;20153;-78
2022/12/06 04:04:29;;;;;;;3.97;2.50;;;;;;;10.61;57.74;94972.34;2618063;47;20193;-77
2022/12/06 04:06:58;;;;;;;3.23;2.73;;;;;;;9.81;60.80;94959.34;2618087;54;20156;-77
2022/12/06 04:14:51;;;;;;;4.43;2.53;;;;;;;12.27;57.69;94971.63;2618040;47;20151;-77
2022/12/06 04:20:00;;;;;;;4.73;2.47;;;;;;;12.82;56.29;94971.88;2618666;47;20236;-79
2022/12/06 04:25:13;;;;;;;2.13;2.03;;;;;;;12.95;56.00;94975.78;2618004;48;20141;-78
2022/12/06 04:38:41;;;;;;;4.53;3.33;;;;;;;12.32;52.54;94968.25;2618025;52;20164;-80
2022/12/06 04:43:40;;;;;;;2.67;2.50;;;;;;;11.46;55.33;94971.81;2618077;47;20180;-79
2022/12/06 04:43:58;;;;;;;2.60;2.27;;;;;;;10.25;58.47;94983.72;2618418;47;20165;-78
2022/12/06 04:46:27;;;;;;;3.53;2.97;;;;;;;11.33;62.11;94971.41;2618200;54;20161;-80
2022/12/06 04:48:56;;;;;;;7.07;2.93;;;;;;;11.60;57.37;94975.13;2618055;47;20172;-80
2022/12/06 04:51:25;;;;;;;5.47;4.17;;;;;;;10.51;57.74;94952.88;2617817;54;20284;-79
2022/12/06 04:53:53;;;;;;;3.57;3.07;;;;;;;10.02;60.48;94975.00;2617467;54;20156;-78
2022/12/06 04:56:24;;;;;;;4.47;3.30;;;;;;;10.73;62.24;94981.28;2617271;47;20169;-79
2022/12/06 04:58:53;;;;;;;3.83;3.47;;;;;;;11.56;59.08;94978.56;2617803;54;20157;-78
2022/12/06 05:01:22;;;;;;;4.23;3.83;;;;;;;11.42;56.12;94975.22;2618020;47;20196;-77
2022/12/06 05:03:50;;;;;;;4.80;4.40;;;;;;;10.82;56.68;94983.03;2617495;54;20268;-77
2022/12/06 05:06:22;;;;;;;5.53;3.40;;;;;;;9.75;60.12;94978.88;2617795;47;20744;-78
2022/12/06 05:08:50;;;;;;;4.47;4.00;;;;;;;9.11;62.43;94972.00;2617327;47;20157;-77
2022/12/06 05:11:19;;;;;;;6.13;2.97;;;;;;;8.58;64.92;94972.53;2617002;47;20157;-78
2022/12/06 05:13:51;;;;;;;7.80;5.80;;;;;;;8.53;65.85;94980.06;2617554;47;20252;-78
2022/12/06 05:16:19;;;;;;;11.13;7.33;;;;;;;8.21;67.07;94964.44;2618546;47;20165;-78
2022/12/06 05:18:48;;;;;;;4.37;3.63;;;;;;;7.87;69.20;94974.13;2617728;54;20244;-79
2022/12/06 05:21:19;;;;;;;5.00;3.77;;;;;;;7.76;69.83;94976.47;2617908;47;20343;-78
2022/12/06 05:23:48;;;;;;;3.53;3.23;;;;;;;7.56;69.43;94940.94;2617400;47;20165;-78
2022/12/06 05:26:18;;;;;;;3.90;3.23;;;;;;;7.68;69.99;94970.44;2617264;47;20164;-77
2022/12/06 05:28:50;;;;;;;3.70;3.47;;;;;;;7.74;69.41;94973.56;2617012;47;20149;-78
2022/12/06 05:31:20;;;;;;;3.93;2.87;;;;;;;7.81;68.72;94974.56;2616797;47;20188;-77
2022/12/06 05:33:49;;;;;;;3.40;3.10;;;;;;;7.84;68.76;94973.31;2617101;47;20216;-77
2022/12/06 05:36:20;;;;;;;3.50;2.67;;;;;;;8.03;67.73;94974.91;2617080;47;20264;-79
2022/12/06 05:38:49;;;;;;;2.30;2.13;;;;;;;7.88;68.30;94970.69;2617430;47;20165;-81
2022/12/06 05:41:18;;;;;;;3.23;2.30;;;;;;;7.85;68.82;94964.22;2616090;54;20164;-81
2022/12/06 05:43:47;;;;;;;3.50;3.30;;;;;;;8.01;68.23;94980.44;2617693;47;20152;-78
2022/12/06 05:46:18;;;;;;;3.40;3.20;;;;;;;8.34;67.25;94974.22;2617193;47;20164;-79
2022/12/06 05:48:47;;;;;;;2.90;2.63;;;;;;;8.16;67.59;94957.91;2618519;54;20181;-78
2022/12/06 05:51:16;;;;;;;2.80;2.67;;;;;;;7.92;68.96;94962.44;2619436;54;20170;-79
2022/12/06 05:53:45;;;;;;;3.70;2.90;;;;;;;7.84;69.42;94959.22;2618549;47;20192;-77
2022/12/06 05:56:14;;;;;;;3.27;2.97;;;;;;;7.80;69.76;94961.81;2618239;47;20199;-79
2022/12/06 05:58:43;;;;;;;3.73;3.33;;;;;;;7.83;69.66;94957.75;2618787;47;20172;-78
2022/12/06 06:01:12;;;;;;;3.87;3.57;;;;;;;8.02;68.35;94950.88;2618979;54;20200;-78
2022/12/06 06:03:43;;;;;;;3.03;2.73;;;;;;;8.32;67.32;94971.34;2620167;47;20160;-78
2022/12/06 06:06:11;;;;;;;5.07;4.63;;;;;;;8.04;67.29;94960.16;2620924;47;20153;-78
2022/12/06 06:08:40;;;;;;;3.33;3.13;;;;;;;7.53;70.79;94948.56;2619426;47;20176;-78
2022/12/06 06:11:09;;;;;;;3.30;3.00;;;;;;;7.22;71.60;94965.34;2618178;46;20176;-79
2022/12/06 06:13:37;;;;;;;5.10;4.03;;;;;;;6.91;73.01;94951.84;2618554;54;20168;-78
2022/12/06 06:16:06;;;;;;;4.03;3.73;;;;;;;6.22;74.80;94951.81;2618687;54;20187;-78
2022/12/06 06:18:35;;;;;;;3.30;3.10;;;;;;;5.96;78.13;94953.22;2618528;54;20164;-78
2022/12/06 06:21:07;;;;;;;3.87;3.57;;;;;;;6.01;78.36;94954.91;2619230;47;20165;-77
2022/12/06 06:23:36;;;;;;;2.83;2.43;;;;;;;6.37;76.79;94962.47;2618854;54;20263;-78
2022/12/06 06:26:09;;;;;;;4.20;3.00;;;;;;;8.10;75.38;94971.72;2618849;47;20727;-78
2022/12/06 06:28:37;;;;;;;6.43;5.18;;;;;;;8.75;69.22;94971.84;2618026;47;20459;-78
2022/12/06 06:31:07;;;;;;;4.73;4.30;;;;;;;9.24;65.80;94962.66;2619536;47;20189;-78
2022/12/06 06:33:36;;;;;;;3.80;3.00;;;;;;;7.95;66.67;94949.84;2619074;54;20216;-77
2022/12/06 06:36:08;;;;;;;4.93;3.13;;;;;;;7.83;68.99;94964.13;2618666;47;20258;-78
2022/12/06 06:38:37;;;;;;;3.27;2.50;;;;;;;7.98;68.94;94967.59;2618569;46;20217;-78
2022/12/06 06:41:07;;;;;;;4.35;3.85;;;;;;;8.25;67.94;94961.09;2617392;47;20507;-77
2022/12/06 06:43:35;;;;;;;4.07;3.77;;;;;;;7.47;69.54;94962.38;2617920;46;20237;-76
2022/12/06 06:46:07;;;;;;;2.93;2.80;;;;;;;7.44;70.71;94958.72;2618542;54;20157;-76
2022/12/06 06:48:37;;;;;;;4.50;2.37;;;;;;;7.89;70.96;94962.97;2618406;54;20153;-78
2022/12/06 06:51:11;;;;;;;3.40;2.60;;;;;;;8.55;68.80;94954.75;2618322;47;20172;-78
2022/12/06 06:53:40;;;;;;;2.60;2.40;;;;;;;8.84;67.27;94961.66;2618354;47;20244;-78
2022/12/06 06:56:10;;;;;;;5.30;3.73;;;;;;;8.51;66.60;94960.22;2614263;47;20176;-79
2022/12/06 06:58:38;;;;;;;3.93;2.87;;;;;;;8.03;68.87;94952.34;2616591;47;20161;-80
2022/12/06 07:01:09;;;;;;;3.83;3.53;;;;;;;7.70;69.86;94952.91;2618649;47;20223;-78
2022/12/06 07:03:38;;;;;;;7.60;3.47;;;;;;;7.92;70.97;94956.06;2617730;54;20167;-82
2022/12/06 07:06:11;;;;;;;2.67;2.47;;;;;;;8.74;67.97;94958.41;2617720;47;20675;-75
2022/12/06 07:08:42;;;;;;;3.70;3.37;;;;;;;9.02;65.22;94962.44;2617393;47;20165;-76
2022/12/06 07:11:11;;;;;;;2.30;2.20;;;;;;;9.54;69.19;94951.91;2616822;47;20156;-76
2022/12/06 07:13:41;;;;;;;3.33;3.10;;;;;;;9.21;64.62;94959.03;2617974;54;20169;-76
2022/12/06 07:16:15;;;;;;;2.70;2.60;;;;;;;9.59;63.70;94959.88;2618659;54;20157;-76
2022/12/06 07:18:46;;;;;;;5.83;3.00;;;;;;;9.68;63.81;94946.81;2617927;54;20264;-76
2022/12/06 07:21:22;;;;;;;10.73;3.37;;;;;;;9.89;62.05;94932.09;2617826;47;20176;-76
2022/12/06 07:23:51;;;;;;;4.00;3.30;;;;;;;10.33;62.55;94952.19;2618189;47;20168;-76
2022/12/06 07:26:21;;;;;;;2.53;2.07;;;;;;;10.97;61.43;94958.78;2618070;47;20169;-77
2022/12/06 07:28:52;;;;;;;3.53;3.33;;;;;;;10.43;59.46;94966.00;2617778;46;20189;-76
2022/12/06 07:31:23;;;;;;;3.00;2.53;;;;;;;10.07;60.47;94954.00;2617826;47;20168;-77
2022/12/06 07:33:54;;;;;;;3.90;3.60;;;;;;;10.02;60.49;94958.03;2615169;54;20179;-77
2022/12/06 07:36:27;;;;;;;4.93;2.67;;;;;;;9.27;62.83;94947.97;2618395;54;20161;-81
2022/12/06 07:38:57;;;;;;;3.00;2.70;;;;;;;9.57;64.05;94942.09;2617984;47;20172;-79
2022/12/06 07:46:53;;;;;;;3.07;2.87;;;;;;;9.07;64.11;94946.38;2616804;47;20176;-75
2022/12/06 07:49:21;;;;;;;3.80;2.93;;;;;;;8.12;66.04;94948.53;2615623;47;20173;-76
2022/12/06 07:51:54;;;;;;;2.77;2.67;;;;;;;7.79;68.55;94947.00;2617792;54;20276;-78
2022/12/06 07:54:24;;;;;;;3.67;3.37;;;;;;;7.13;69.61;94919.88;2619157;47;20171;-79
2022/12/06 07:56:55;;;;;;;3.43;2.83;;;;;;;6.87;71.83;94949.53;2616786;47;20213;-78
2022/12/06 07:59:23;;;;;;;3.37;3.07;;;;;;;7.45;71.97;94960.19;2617229;47;20161;-79
2022/12/06 08:01:53;;;;;;;2.83;2.57;;;;;;;7.62;68.88;94910.22;2616595;47;20157;-78
2022/12/06 08:04:22;;;;;;;2.57;2.47;;;;;;;8.01;67.70;94947.31;2618376;54;20151;-76
2022/12/06 08:06:54;;;;;;;3.53;2.90;;;;;;;7.46;68.90;94952.47;2617977;47;20256;-78
2022/12/06 08:09:22;;;;;;;2.60;2.40;;;;;;;6.59;70.71;94939.63;2618651;47;20168;-78
2022/12/06 08:11:51;;;;;;;2.57;2.23;;;;;;;6.34;72.81;94941.19;2618482;46;20201;-78
2022/12/06 08:14:20;;;;;;;2.97;2.77;;;;;;;6.40;72.51;94954.84;2617641;51;20160;-79
2022/12/06 08:16:48;;;;;;;2.57;1.67;;;;;;;6.27;74.65;94953.50;2617524;47;20664;-78
2022/12/06 08:19:17;;;;;;;3.37;3.07;;;;;;;6.08;73.73;94937.00;2617933;47;20153;-77
2022/12/06 08:21:46;;;;;;;1.33;1.33;;;;;;;6.29;74.00;94950.75;2618959;47;20224;-79
2022/12/06 08:24:17;;;;;;;2.50;2.30;;;;;;;6.02;75.13;94922.59;2619375;39;20515;-80
2022/12/06 08:26:46;;;;;;;3.37;3.17;;;;;;;6.16;74.31;94942.31;2617607;54;20172;-79
2022/12/06 08:29:15;;;;;;;5.30;3.60;;;;;;;6.02;75.07;94933.84;2618411;54;20180;-80
2022/12/06 08:31:44;;;;;;;1.57;1.53;;;;;;;6.13;75.45;94944.28;2615681;47;20199;-78
2022/12/06 08:34:14;;;;;;;1.87;1.77;;;;;;;6.17;75.65;94927.63;2618771;54;20245;-78
2022/12/06 08:36:43;;;;;;;3.20;3.00;;;;;;;6.21;73.71;94936.28;2615824;47;20173;-77
2022/12/06 08:39:13;;;;;;;7.43;2.60;;;;;;;6.13;75.37;94933.06;2617970;47;20220;-79
2022/12/06 08:41:57;;;;;;;2.60;1.80;;;;;;;6.87;73.59;94931.91;2616334;31;20692;-78
2022/12/06 08:44:27;;;;;;;2.10;2.00;;;;;;;7.23;72.59;94933.75;2619082;47;20157;-77
2022/12/06 08:46:56;;;;;;;3.50;1.53;;;;;;;7.58;69.69;94933.31;2618340;54;20256;-81
2022/12/06 08:49:26;;;;;;;4.33;2.57;;;;;;;7.27;70.27;94930.38;2617380;47;20184;-79
2022/12/06 08:51:56;;;;;;;2.40;2.20;;;;;;;7.17;71.48;94935.53;2616609;54;20203;-79
2022/12/06 08:54:26;;;;;;;2.70;2.50;;;;;;;7.12;71.99;94935.31;2616001;47;20165;-77
2022/12/06 08:56:57;;;;;;;2.57;2.37;;;;;;;7.11;73.27;94935.94;2618389;49;20221;-76
2022/12/06 08:59:26;;;;;;;3.67;2.37;;;;;;;7.34;71.71;94932.16;2617771;46;20216;-78
2022/12/06 09:01:54;;;;;;;5.57;3.03;;;;;;;7.33;70.62;94934.22;2617245;47;20813;-77
2022/12/06 09:04:23;;;;;;;3.90;3.63;;;;;;;7.90;71.42;94934.13;2616031;47;20153;-78
2022/12/06 09:06:52;;;;;;;2.70;2.50;;;;;;;8.44;68.44;94909.78;2614211;54;20161;-76
2022/12/06 09:09:21;;;;;;;3.30;3.00;;;;;;;9.13;67.60;94924.06;2616802;46;20241;-77
2022/12/06 09:11:51;;;;;;;2.37;2.03;;;;;;;8.63;65.12;94909.19;2613802;47;20160;-77
2022/12/06 09:14:23;;;;;;;5.77;2.90;;;;;;;7.71;67.76;94904.34;2616528;54;20172;-78
2022/12/06 09:16:52;;;;;;;6.23;3.53;;;;;;;6.63;71.70;94894.81;2617253;47;20153;-77
2022/12/06 09:19:22;;;;;;;2.30;2.20;;;;;;;6.61;73.27;94892.63;2617130;54;20173;-81
2022/12/06 09:21:50;;;;;;;5.03;2.80;;;;;;;6.80;73.26;94885.84;2618131;54;20168;-81
2022/12/06 09:24:22;;;;;;;3.00;2.63;;;;;;;6.52;74.21;94882.34;2615368;47;20212;-81
2022/12/06 09:26:51;;;;;;;4.53;4.20;;;;;;;6.43;74.97;94883.25;2616731;47;20171;-79
2022/12/06 09:29:22;;;;;;;4.03;3.70;;;;;;;7.00;74.76;94880.47;2617723;54;20256;-78
2022/12/06 09:31:52;;;;;;;2.77;2.57;;;;;;;7.41;72.19;94874.72;2617734;47;20149;-76
2022/12/06 09:34:21;;;;;;;3.73;3.33;;;;;;;7.56;71.57;94850.75;2617728;47;20212;-78
2022/12/06 09:36:55;;;;;;;3.07;2.83;;;;;;;7.37;71.75;94849.91;2616665;47;20168;-76
2022/12/06 09:39:28;;;;;;;3.90;3.33;;;;;;;7.05;72.69;94848.34;2615544;54;20169;-76
2022/12/06 09:42:26;;;;;;;2.67;2.47;;;;;;;7.19;72.59;94843.41;2613827;54;20173;-78
2022/12/06 09:45:17;;;;;;;5.80;3.30;;;;;;;7.08;72.22;94819.66;2617749;47;20265;-78
2022/12/06 09:48:07;;;;;;;4.53;2.43;;;;;;;7.27;72.16;94826.88;2617289;54;20165;-78
2022/12/06 09:50:45;;;;;;;2.07;1.90;;;;;;;7.16;72.10;94827.75;2617884;39;20559;-79
2022/12/06 09:53:23;;;;;;;3.57;2.33;;;;;;;7.07;72.19;94837.91;2616629;47;20191;-80
2022/12/06 09:56:08;;;;;;;2.67;2.57;;;;;;;7.50;70.67;94848.38;2617458;47;20181;-81
2022/12/06 09:58:53;;;;;;;4.23;3.77;;;;;;;7.07;71.86;94809.75;2617919;54;20157;-77
2022/12/06 10:01:34;;;;;;;2.67;2.50;;;;;;;7.73;73.56;94831.13;2618173;39;20606;-80
2022/12/06 10:04:38;;;;;;;3.33;3.03;;;;;;;7.79;70.12;94822.94;2619246;47;20172;-82
2022/12/06 10:07:14;;;;;;;2.77;2.53;;;;;;;7.38;70.47;94797.81;2617842;47;20346;-78
2022/12/06 10:09:50;;;;;;;3.33;3.07;;;;;;;7.84;70.57;94816.13;2618306;47;20168;-78
2022/12/06 10:12:36;;;;;;;6.83;4.00;;;;;;;8.71;68.31;94804.38;2614737;47;20180;-79
2022/12/06 10:15:17;;;;;;;2.73;2.63;;;;;;;8.86;66.64;94797.94;2616179;54;20157;-78
2022/12/06 10:18:03;;;;;;;4.13;2.60;;;;;;;8.46;69.08;94794.88;2616857;54;21269;-79
2022/12/06 10:20:39;;;;;;;4.40;4.10;;;;;;;8.01;66.86;94768.91;2615913;47;20217;-76
2022/12/06 10:23:19;;;;;;;2.53;2.27;;;;;;;7.86;68.91;94787.28;2615100;54;20161;-77
2022/12/06 10:25:59;;;;;;;5.37;3.63;;;;;;;7.95;69.34;94777.09;2616822;54;20324;-79
2022/12/06 10:28:40;;;;;;;24.30;2.83;;;;;;;8.11;69.34;94769.34;2616453;47;20220;-78
2022/12/06 10:31:20;;;;;;;3.80;2.03;;;;;;;7.71;69.50;94757.75;2617029;54;20169;-77
2022/12/06 10:33:57;;;;;;;3.60;2.53;;;;;;;7.91;68.59;94777.66;2617065;47;20176;-76
2022/12/06 10:36:42;;;;;;;3.90;3.57;;;;;;;7.41;70.83;94773.28;2617174;47;20160;-78
2022/12/06 10:39:21;;;;;;;2.40;2.20;;;;;;;7.66;71.08;94764.56;2618932;47;20160;-76
2022/12/06 10:41:57;;;;;;;2.23;2.13;;;;;;;7.78;70.64;94765.13;2618599;47;20268;-81
2022/12/06 10:44:33;;;;;;;4.27;2.97;;;;;;;7.88;68.95;94755.63;2620386;47;20165;-78
2022/12/06 10:47:04;;;;;;;2.73;2.53;;;;;;;7.81;69.70;94760.28;2620002;39;20556;-79
2022/12/06 10:49:44;;;;;;;4.63;4.23;;;;;;;8.04;68.06;94781.75;2618215;54;20161;-78
2022/12/06 10:52:24;;;;;;;5.87;3.77;;;;;;;8.07;70.46;94774.78;2617511;54;20161;-78
2022/12/06 10:55:04;;;;;;;3.87;3.43;;;;;;;7.59;69.70;94764.94;2616292;47;20165;-79
2022/12/06 10:57:42;;;;;;;6.40;3.00;;;;;;;7.48;70.47;94769.38;2617231;54;20207;-79
2022/12/06 11:00:17;;;;;;;3.30;2.97;;;;;;;7.44;70.69;94755.09;2617752;54;20216;-78
2022/12/06 11:02:53;;;;;;;3.77;2.93;;;;;;;7.91;70.56;94743.09;2617952;46;20184;-76
2022/12/06 11:05:29;;;;;;;2.23;2.03;;;;;;;7.92;67.92;94738.91;2617795;47;20184;-77
2022/12/06 11:08:04;;;;;;;3.27;2.37;;;;;;;7.74;68.80;94728.28;2617959;47;20239;-77
2022/12/06 11:10:36;;;;;;;2.97;2.47;;;;;;;7.83;69.44;94738.53;2617423;54;20176;-77
2022/12/06 11:13:16;;;;;;;6.17;4.13;;;;;;;8.15;67.91;94741.31;2618333;47;20172;-78
2022/12/06 11:15:53;;;;;;;4.53;3.13;;;;;;;7.92;68.43;94722.72;2618626;47;20288;-77
2022/12/06 11:18:22;;;;;;;3.50;3.20;;;;;;;7.92;69.17;94725.53;2617673;54;20200;-79
2022/12/06 11:21:00;;;;;;;2.57;2.37;;;;;;;7.98;67.79;94731.41;2618604;46;20164;-78
2022/12/06 11:23:36;;;;;;;13.93;2.70;;;;;;;7.30;69.86;94681.19;2621390;39;20564;-80
2022/12/06 11:26:21;;;;;;;2.30;2.20;;;;;;;7.57;69.47;94714.81;2619478;39;20722;-80
2022/12/06 11:29:04;;;;;;;2.40;2.27;;;;;;;7.44;70.79;94718.47;2620337;54;20149;-78
2022/12/06 11:31:35;;;;;;;2.63;2.43;;;;;;;7.71;70.10;94715.44;2620071;46;20220;-78
2022/12/06 11:34:06;;;;;;;2.37;2.27;;;;;;;7.92;69.84;94699.44;2619112;47;20168;-76
2022/12/06 11:36:38;;;;;;;4.37;2.90;;;;;;;8.30;68.92;94709.50;2617695;39;20569;-77
2022/12/06 11:39:06;;;;;;;2.53;1.63;;;;;;;8.26;69.64;94714.97;2617743;47;20196;-78
2022/12/06 11:41:38;;;;;;;4.60;3.53;;;;;;;7.78;68.97;94720.00;2617807;47;20153;-76
2022/12/06 11:44:08;;;;;;;2.00;1.90;;;;;;;7.79;69.66;94681.25;2617789;54;20169;-78
2022/12/06 11:46:36;;;;;;;3.83;2.07;;;;;;;7.96;68.80;94710.84;2617022;47;20168;-79
2022/12/06 11:49:16;;;;;;;2.27;2.17;;;;;;;8.26;70.09;94714.97;2615876;47;20803;-76
2022/12/06 11:51:48;;;;;;;8.60;2.53;;;;;;;8.35;66.61;94676.53;2616328;47;20292;-76
2022/12/06 11:54:25;;;;;;;3.40;3.10;;;;;;;8.24;67.93;94705.69;2614721;47;20192;-79
2022/12/06 11:56:55;;;;;;;4.90;2.47;;;;;;;7.75;69.04;94698.00;2617318;54;20711;-78
2022/12/06 11:59:27;;;;;;;1.73;1.63;;;;;;;8.51;69.12;94696.97;2617575;47;20180;-77
2022/12/06 12:01:59;;;;;;;4.07;2.50;;;;;;;8.38;68.77;94703.50;2616712;47;20197;-79
2022/12/06 12:04:33;;;;;;;2.33;2.13;;;;;;;7.83;69.25;94672.97;2617780;54;20702;-81
2022/12/06 12:07:12;;;;;;;2.03;1.83;;;;;;;8.73;69.64;94691.50;2617762;54;20171;-77
2022/12/06 12:09:52;;;;;;;3.50;3.20;;;;;;;7.80;69.18;94688.31;2617144;54;20168;-79
2022/12/06 12:12:22;;;;;;;2.97;2.77;;;;;;;7.60;70.90;94676.91;2617791;47;20190;-82
2022/12/06 12:14:58;;;;;;;3.37;3.10;;;;;;;7.74;70.44;94682.44;2616886;54;20188;-77
2022/12/06 12:17:32;;;;;;;12.93;3.57;;;;;;;7.73;71.58;94658.44;2614161;47;20680;-78
2022/12/06 12:20:04;;;;;;;16.57;2.30;;;;;;;7.74;71.18;94662.72;2617485;54;20172;-80
2022/12/06 12:22:38;;;;;;;16.23;3.40;;;;;;;8.30;71.54;94675.66;2617236;54;20152;-80
2022/12/06 12:25:24;;;;;;;4.53;3.43;;;;;;;8.33;70.55;94656.72;2617429;54;20187;-79
2022/12/06 12:27:54;;;;;;;11.83;3.37;;;;;;;8.55;68.21;94661.16;2617257;47;20161;-78
2022/12/06 12:30:30;;;;;;;2.30;2.23;;;;;;;8.54;68.18;94656.16;2617206;47;20240;-75
2022/12/06 12:33:26;;;;;;;3.53;3.20;;;;;;;8.45;67.71;94665.69;2616767;54;20224;-75
2022/12/06 12:36:10;;;;;;;3.50;3.17;;;;;;;8.06;69.57;94658.41;2616153;47;20285;-77
2022/12/06 12:38:45;;;;;;;5.07;3.63;;;;;;;7.55;71.45;94641.47;2617267;46;20199;-77
2022/12/06 12:41:30;;;;;;;3.83;3.50;;;;;;;7.52;72.55;94645.53;2616387;47;20172;-79
2022/12/06 12:44:02;;;;;;;3.30;3.00;;;;;;;7.74;72.11;94648.63;2617700;47;20160;-80
2022/12/06 12:46:31;;;;;;;2.40;2.03;;;;;;;7.33;72.55;94632.78;2617631;47;20165;-80
2022/12/06 12:49:24;;;;;;;3.47;2.53;;;;;;;7.70;72.34;94642.78;2617147;47;20168;-79
2022/12/06 12:51:54;;;;;;;2.63;2.40;;;;;;;7.76;71.83;94651.53;2617194;47;20161;-79
2022/12/06 12:54:29;;;;;;;7.00;2.43;;;;;;;8.06;70.45;94641.50;2617626;47;20169;-79
2022/12/06 12:56:58;;;;;;;3.50;2.37;;;;;;;7.44;71.99;94628.28;2616994;46;20275;-80
2022/12/06 12:59:29;;;;;;;3.40;2.50;;;;;;;8.02;71.98;94647.00;2617675;47;20199;-77
2022/12/06 13:02:01;;;;;;;1.80;1.70;;;;;;;8.48;72.00;94634.06;2617352;47;20252;-79
2022/12/06 13:04:42;;;;;;;4.30;3.60;;;;;;;8.11;68.64;94651.59;2618191;39;20521;-78
2022/12/06 13:07:20;;;;;;;3.13;2.83;;;;;;;8.33;69.86;94643.34;2615129;47;20299;-78
2022/12/06 13:09:57;;;;;;;3.83;3.33;;;;;;;8.05;69.37;94639.34;2615632;47;20180;-79
2022/12/06 13:12:32;;;;;;;2.87;2.77;;;;;;;8.09;69.80;94650.78;2616795;47;20188;-78
2022/12/06 13:15:07;;;;;;;3.83;3.53;;;;;;;7.63;71.32;94643.91;2616990;47;20229;-79
2022/12/06 13:17:38;;;;;;;7.13;4.17;;;;;;;7.32;72.80;94636.22;2615990;47;20264;-78
2022/12/06 13:20:22;;;;;;;2.83;2.40;;;;;;;7.21;72.90;94631.50;2617652;39;20498;-77
2022/12/06 13:22:55;;;;;;;3.57;3.27;;;;;;;7.35;73.58;94634.94;2617035;47;20157;-78
2022/12/06 13:25:26;;;;;;;3.87;2.87;;;;;;;7.23;73.59;94600.63;2617621;54;20176;-81
2022/12/06 13:27:58;;;;;;;5.57;2.63;;;;;;;7.36;73.37;94639.22;2617590;47;20160;-78
2022/12/06 13:30:30;;;;;;;5.37;3.63;;;;;;;7.49;73.93;94644.03;2618708;47;20157;-79
2022/12/06 13:33:02;;;;;;;3.93;2.90;;;;;;;7.60;73.02;94634.63;2613101;47;20177;-77
2022/12/06 13:35:33;;;;;;;5.17;2.93;;;;;;;7.75;72.12;94613.41;2616811;54;20208;-76
2022/12/06 13:38:04;;;;;;;6.73;3.63;;;;;;;7.64;72.78;94626.38;2616863;54;20232;-76
2022/12/06 13:40:50;;;;;;;5.70;3.20;;;;;;;7.51;73.54;94629.31;2616587;46;20187;-76
2022/12/06 13:43:50;;;;;;;17.43;3.80;;;;;;;7.46;73.79;94634.03;2616847;54;20315;-76
2022/12/06 13:46:33;;;;;;;2.03;1.93;;;;;;;7.33;74.01;94604.59;2616422;47;20687;-81
2022/12/06 13:49:04;;;;;;;3.07;2.83;;;;;;;7.38;73.74;94616.78;2615999;54;20164;-80
2022/12/06 13:51:51;;;;;;;8.40;4.43;;;;;;;7.26;74.69;94625.41;2614795;47;20169;-80
2022/12/06 13:54:37;;;;;;;3.93;3.53;;;;;;;6.98;75.40;94610.06;2617543;47;20161;-80
2022/12/06 13:57:31;;;;;;;7.87;4.13;;;;;;;6.88;76.31;94606.78;2615688;54;20161;-80
2022/12/06 14:00:00;;;;;;;2.53;2.27;;;;;;;6.97;76.72;94620.59;2617520;47;20208;-76
2022/12/06 14:02:45;;;;;;;3.40;2.93;;;;;;;6.96;76.45;94624.78;2617356;47;20187;-78
2022/12/06 14:05:56;;;;;;;5.40;3.80;;;;;;;6.70;77.29;94609.50;2618196;54;20148;-79
2022/12/06 14:08:27;;;;;;;10.23;5.00;;;;;;;6.76;77.60;94612.59;2617120;54;20264;-79
2022/12/06 14:11:17;;;;;;;7.40;3.97;;;;;;;6.85;76.95;94619.31;2617811;47;20173;-78
2022/12/06 14:13:50;;;;;;;4.87;4.40;;;;;;;6.78;77.43;94624.69;2620733;54;20157;-77
2022/12/06 14:16:27;;;;;;;13.33;5.53;;;;;;;6.50;77.76;94592.41;2618872;47;20153;-79
2022/12/06 14:18:56;;;;;;;7.87;3.97;;;;;;;6.76;78.31;94621.78;2618012;54;20157;-80
2022/12/06 14:21:28;;;;;;;5.30;4.53;;;;;;;6.81;76.43;94591.72;2618342;54;20169;-79
2022/12/06 14:23:57;;;;;;;6.57;3.40;;;;;;;6.78;77.40;94621.16;2617892;54;20173;-79
2022/12/06 14:26:28;;;;;;;4.07;3.40;;;;;;;6.98;77.01;94610.06;2617349;47;20169;-78
2022/12/06 14:29:01;;;;;;;3.93;2.87;;;;;;;6.75;76.97;94605.53;2617715;47;20660;-77
2022/12/06 14:31:38;;;;;;;3.83;3.60;;;;;;;6.63;77.78;94588.81;2617546;54;20160;-79
2022/12/06 14:34:07;;;;;;;7.23;4.13;;;;;;;7.10;76.87;94613.44;2617712;47;20161;-77
2022/12/06 14:36:41;;;;;;;6.30;4.20;;;;;;;7.16;76.36;94619.31;2615462;54;20207;-77
2022/12/06 14:39:17;;;;;;;5.20;3.80;;;;;;;7.65;74.15;94625.00;2618206;47;20156;-80
2022/12/06 14:44:37;;;;;;;3.77;3.37;;;;;;;8.28;70.48;94616.31;2617685;47;20161;-78
2022/12/06 14:47:06;;;;;;;3.43;3.17;;;;;;;8.75;70.18;94633.00;2617477;54;20829;-76
2022/12/06 14:52:24;;;;;;;3.90;3.30;;;;;;;9.82;66.31;94622.09;2616666;39;20551;-77
2022/12/06 14:54:54;;;;;;;5.73;4.00;;;;;;;10.20;64.43;94607.81;2618328;47;20156;-74